INFORMAÇÕES DO AERODROMO
Icao Aerodromo SBRP Nome do Aerodromo Leite Lopes Airport Cidade Ribeirão Preto
Código GPS SBRP Elevação Média 1806 ft Tipo de Aerodromo Aeroporto Médio Porte

INFORMAÇÃO DE PISTA
Pista 18 Comprimento da Pista 6890 ft Largura da Pista 148 ft
Elevação da Pista 0 ft Distância de Area de Escape da Pista 0 ft Orientação da Pista 0
Pista 36 Comprimento da Pista 6890 ft Largura da Pista 148 ft
Elevação da Pista 0 ft Distância de Area de Escape da Pista 0 ft Orientação da Pista 0

FREQUÊNCIAS DO AERODROMO
Tipo AFIS Nome RIBEIRAO R Frequência 118 MHZ
Tipo APP Nome RIBEIRAO A Frequência 119.55 MHZ
Tipo ATIS Nome ATIS Frequência 127.425 MHZ
Tipo TWR Nome RIBEIRAO T Frequência 118 MHZ

INFORMAÇÕES DE NAVEGAÇÃO PRÓXIMO AO AERODROMO
Tipo NDB Nome Ribeirao Frequência 330 KHZ

Informações de Meteorologia(METAR atual)
METAR DE SBRP
ADDS - METARS form results

(0955 UTC 26 April 2018)
Data provider http://aviationweather.gov/adds/metars/
 
METAR text: SBRP 260900Z 14004KT CAVOK 17/16 Q1018
Conditions at: SBRP (LEITE LOPES/RIBE, BR) observed 0900 UTC 26 April 2018
Temperature: 17.0°C (63°F)
Dewpoint: 16.0°C (61°F) [RH = 94%]
Pressure (altimeter): 30.06 inches Hg (1018.0 mb)
Winds: from the SE (140 degrees) at 5 MPH (4 knots; 2.1 m/s)
Visibility: 6 or more miles (10+ km)
Ceiling: ceiling and visibility are OK
Clouds: unknown
Weather: no significant weather observed at this time

Forecast for: SBRP (LEITE LOPES/RIBE, BR)
Text: TAF SBRP 260201Z 2606/2706 09003KT CAVOK TN16/2609Z TX31/2617Z
Forecast period: 0600 to 0700 UTC 26 April 2018
Forecast type: FROM: standard forecast or significant change
Winds: from the E (90 degrees) at 3 MPH (3 knots; 1.6 m/s)
Visibility: 6 or more miles (10+ km)
Clouds: not forecast
Weather: no significant weather forecast for this period
Forecast for: SBRP (LEITE LOPES/RIBE, BR)
Text: TAF SBRP 260201Z 2606/2706 09003KT CAVOK TN16/2609Z TX31/2617Z
Forecast period: 0600 to 0700 UTC 26 April 2018
Forecast type: FROM: standard forecast or significant change
Winds: from the E (90 degrees) at 3 MPH (3 knots; 1.6 m/s)
Visibility: 6 or more miles (10+ km)
Clouds: not forecast
Weather: no significant weather forecast for this period
Forecast for: SBRP (LEITE LOPES/RIBE, BR)
Text: TAF SBRP 260201Z 2606/2706 09003KT CAVOK TN16/2609Z TX31/2617Z
Forecast period: 0700 to 1000 UTC 26 April 2018
Forecast type: BECOMING: Conditions expected to become as follows by 0900 UTC 26 April 2018
Winds: from the E (100 degrees) at 5 MPH (4 knots; 2.1 m/s)
Visibility: 6 or more miles (10+ km)
Weather: no significant weather forecast for this period
Forecast for: SBRP (LEITE LOPES/RIBE, BR)
Text: TAF SBRP 260201Z 2606/2706 09003KT CAVOK TN16/2609Z TX31/2617Z
Forecast period: 0700 to 1000 UTC 26 April 2018
Forecast type: BECOMING: Conditions expected to become as follows by 0900 UTC 26 April 2018
Winds: from the E (100 degrees) at 5 MPH (4 knots; 2.1 m/s)
Visibility: 6 or more miles (10+ km)
Weather: no significant weather forecast for this period
Forecast for: SBRP (LEITE LOPES/RIBE, BR)
Text: TAF SBRP 260201Z 2606/2706 09003KT CAVOK TN16/2609Z TX31/2617Z
Forecast period: 1000 to 1500 UTC 26 April 2018
Forecast type: BECOMING: Conditions expected to become as follows by 1200 UTC 26 April 2018
Winds: from the E (100 degrees) at 9 MPH (8 knots; 4.2 m/s)
Visibility: 6 or more miles (10+ km)
Weather: no significant weather forecast for this period
Forecast for: SBRP (LEITE LOPES/RIBE, BR)
Text: TAF SBRP 260201Z 2606/2706 09003KT CAVOK TN16/2609Z TX31/2617Z
Forecast period: 1000 to 1500 UTC 26 April 2018
Forecast type: BECOMING: Conditions expected to become as follows by 1200 UTC 26 April 2018
Winds: from the E (100 degrees) at 9 MPH (8 knots; 4.2 m/s)
Visibility: 6 or more miles (10+ km)
Weather: no significant weather forecast for this period
Forecast for: SBRP (LEITE LOPES/RIBE, BR)
Text: TAF SBRP 260201Z 2606/2706 09003KT CAVOK TN16/2609Z TX31/2617Z
Forecast period: 1500 to 1900 UTC 26 April 2018
Forecast type: BECOMING: Conditions expected to become as follows by 1700 UTC 26 April 2018
Winds: from the ENE (70 degrees) at 3 MPH (3 knots; 1.6 m/s)
Visibility: 6 or more miles (10+ km)
Clouds: scattered clouds at 4500 feet AGL
Weather: no significant weather forecast for this period
Forecast for: SBRP (LEITE LOPES/RIBE, BR)
Text: TAF SBRP 260201Z 2606/2706 09003KT CAVOK TN16/2609Z TX31/2617Z
Forecast period: 1500 to 1900 UTC 26 April 2018
Forecast type: BECOMING: Conditions expected to become as follows by 1700 UTC 26 April 2018
Winds: from the ENE (70 degrees) at 3 MPH (3 knots; 1.6 m/s)
Visibility: 6 or more miles (10+ km)
Clouds: scattered clouds at 4500 feet AGL
Weather: no significant weather forecast for this period
Forecast for: SBRP (LEITE LOPES/RIBE, BR)
Text: TAF SBRP 260201Z 2606/2706 09003KT CAVOK TN16/2609Z TX31/2617Z
Forecast period: 1900 UTC 26 April 2018 to 0100 UTC 27 April 2018
Forecast type: BECOMING: Conditions expected to become as follows by 2100 UTC 26 April 2018
Winds: from the E (100 degrees) at 6 MPH (5 knots; 2.6 m/s)
Visibility: 6 or more miles (10+ km)
Weather: NSW  (no significant weather)
Forecast for: SBRP (LEITE LOPES/RIBE, BR)
Text: TAF SBRP 260201Z 2606/2706 09003KT CAVOK TN16/2609Z TX31/2617Z
Forecast period: 1900 UTC 26 April 2018 to 0100 UTC 27 April 2018
Forecast type: BECOMING: Conditions expected to become as follows by 2100 UTC 26 April 2018
Winds: from the E (100 degrees) at 6 MPH (5 knots; 2.6 m/s)
Visibility: 6 or more miles (10+ km)
Weather: NSW  (no significant weather)
Forecast for: SBRP (LEITE LOPES/RIBE, BR)
Text: TAF SBRP 260201Z 2606/2706 09003KT CAVOK TN16/2609Z TX31/2617Z
Forecast period: 0100 to 0600 UTC 27 April 2018
Forecast type: BECOMING: Conditions expected to become as follows by 0300 UTC 27 April 2018
Winds: from the E (90 degrees) at 3 MPH (3 knots; 1.6 m/s)
Visibility: 6 or more miles (10+ km)
Weather: NSW  (no significant weather)
Forecast for: SBRP (LEITE LOPES/RIBE, BR)
Text: TAF SBRP 260201Z 2606/2706 09003KT CAVOK TN16/2609Z TX31/2617Z
Forecast period: 0100 to 0600 UTC 27 April 2018
Forecast type: BECOMING: Conditions expected to become as follows by 0300 UTC 27 April 2018
Winds: from the E (90 degrees) at 3 MPH (3 knots; 1.6 m/s)
Visibility: 6 or more miles (10+ km)
Weather: NSW  (no significant weather)

MAPA DO AERODROMO


Desenvolvido por Virtual Airlines Manager




Modificado por Servidor Brasil Amigos